Time;durP1;ratioP1;P1;durP2;ratioP2;P2;SDS_P1;SDS_P2;PMS_P1;PMS_P2;Temp;Humidity;BMP_temperature;BMP_pressure;BME280_temperature;BME280_humidity;BME280_pressure;Samples;Min_cycle;Max_cycle;Signal;HPM_P1;HPM_P2
2022/06/04 00:01:24;;;;;;;;;;;;;;;15.47;60.00;101914.22;4942505;29;20089;-31
2022/06/04 00:03:49;;;;;;;;;;;;;;;15.42;59.44;101921.25;4941956;29;19961;-30
2022/06/04 00:06:14;;;;;;;;;;;;;;;15.31;59.70;101919.84;4942139;29;20001;-32
2022/06/04 00:08:39;;;;;;;;;;;;;;;15.25;60.32;101918.72;4941910;29;19915;-31
2022/06/04 00:16:33;;;;;;;;;;;;;;;15.26;59.89;101924.97;4941946;29;20481;-31
2022/06/04 00:18:58;;;;;;;;;;;;;;;15.19;59.70;101924.88;4942116;29;19915;-31
2022/06/04 00:21:24;;;;;;;;;;;;;;;15.15;60.20;101927.13;4952413;29;19922;-30
2022/06/04 00:23:49;;;;;;;;;;;;;;;15.13;59.94;101928.34;4963124;28;19972;-31
2022/06/04 00:26:15;;;;;;;;;;;;;;;15.09;59.98;101925.16;4965724;29;19915;-32
2022/06/04 00:28:40;;;;;;;;;;;;;;;15.03;60.34;101934.00;4966043;29;19918;-32
2022/06/04 00:31:06;;;;;;;;;;;;;;;15.01;60.70;101929.81;4965684;29;19954;-31
2022/06/04 00:33:31;;;;;;;;;;;;;;;15.02;60.76;101932.34;4964718;29;19946;-32
2022/06/04 00:35:57;;;;;;;;;;;;;;;14.98;61.89;101927.47;4964776;28;19918;-31
2022/06/04 00:38:23;;;;;;;;;;;;;;;14.93;62.89;101938.88;4947241;29;20426;-32
2022/06/04 00:40:57;;;;;;;;;;;;;;;14.83;63.35;101932.88;4965041;29;19914;-31
2022/06/04 00:43:23;;;;;;;;;;;;;;;14.79;63.86;101943.22;4965272;29;19915;-32
2022/06/04 00:45:54;;;;;;;;;;;;;;;14.79;64.41;101945.09;4947224;29;19929;-32
2022/06/04 00:48:20;;;;;;;;;;;;;;;14.79;64.81;101945.09;4946010;29;19954;-31
2022/06/04 00:50:45;;;;;;;;;;;;;;;14.78;65.38;101941.56;4946797;29;19915;-31
2022/06/04 00:53:11;;;;;;;;;;;;;;;14.74;66.01;101942.94;4946297;29;19919;-30
2022/06/04 00:55:48;;;;;;;;;;;;;;;14.71;66.22;101944.13;4945250;29;19914;-30
2022/06/04 00:58:23;;;;;;;;;;;;;;;14.63;66.69;101938.78;4928790;29;19915;-33
2022/06/04 01:01:00;;;;;;;;;;;;;;;14.60;67.36;101941.88;4948122;29;19922;-31
2022/06/04 01:03:44;;;;;;;;;;;;;;;14.56;67.90;101929.72;4929326;29;19914;-31
2022/06/04 01:06:28;;;;;;;;;;;;;;;14.52;68.00;101939.19;4945120;29;20385;-31
2022/06/04 01:08:59;;;;;;;;;;;;;;;14.47;68.37;101949.72;4944642;29;19915;-31
2022/06/04 01:12:09;;;;;;;;;;;;;;;14.41;68.65;101929.63;4946337;29;19919;-30
2022/06/04 01:14:48;;;;;;;;;;;;;;;14.39;69.01;101938.97;4948102;29;19937;-30
2022/06/04 01:17:18;;;;;;;;;;;;;;;14.31;69.08;101939.84;4927114;29;20285;-31
2022/06/04 01:19:56;;;;;;;;;;;;;;;14.28;69.47;101945.63;4946372;29;20415;-31
2022/06/04 01:22:24;;;;;;;;;;;;;;;14.24;69.88;101952.41;4963340;29;19918;-32
2022/06/04 01:25:19;;;;;;;;;;;;;;;14.20;69.80;101957.34;4963903;29;19914;-32
2022/06/04 01:27:47;;;;;;;;;;;;;;;14.19;70.19;101961.09;4884053;29;19920;-32
2022/06/04 01:30:25;;;;;;;;;;;;;;;14.20;70.34;101968.19;4944760;29;19922;-31
2022/06/04 01:33:14;;;;;;;;;;;;;;;14.18;70.23;101972.94;4942883;29;20273;-31
2022/06/04 01:35:44;;;;;;;;;;;;;;;14.15;70.49;101970.59;4918464;29;19923;-32
2022/06/04 01:38:09;;;;;;;;;;;;;;;14.16;70.38;101969.56;4925512;29;19937;-32
2022/06/04 01:41:03;;;;;;;;;;;;;;;14.16;70.49;101980.38;4925205;29;20395;-31
2022/06/04 01:43:38;;;;;;;;;;;;;;;14.18;70.26;101988.34;4927400;29;19922;-32
2022/06/04 01:46:08;;;;;;;;;;;;;;;14.17;70.55;101987.50;4943874;29;20009;-31
2022/06/04 01:48:34;;;;;;;;;;;;;;;14.18;70.12;101993.75;4926403;29;20408;-32
2022/06/04 01:50:59;;;;;;;;;;;;;;;14.20;70.14;101995.25;4926471;29;19915;-31
2022/06/04 01:53:26;;;;;;;;;;;;;;;14.23;69.86;102002.19;4926519;29;19922;-32
2022/06/04 01:55:55;;;;;;;;;;;;;;;14.18;69.94;101994.59;4927000;29;20574;-32
2022/06/04 01:58:31;;;;;;;;;;;;;;;14.14;70.01;101987.84;4927820;29;19934;-32
2022/06/04 02:00:57;;;;;;;;;;;;;;;14.10;70.06;101981.09;4911720;29;19919;-31
2022/06/04 02:03:35;;;;;;;;;;;;;;;14.09;70.33;101984.00;4928294;29;19965;-32
2022/06/04 02:06:05;;;;;;;;;;;;;;;14.11;70.40;101988.19;4945165;29;20017;-31
2022/06/04 02:08:35;;;;;;;;;;;;;;;14.11;70.70;101982.78;4926996;29;19942;-32
2022/06/04 02:11:02;;;;;;;;;;;;;;;14.16;70.63;101985.78;4943465;29;19954;-32
2022/06/04 02:13:27;;;;;;;;;;;;;;;14.13;70.78;101980.75;4926844;29;20009;-31
2022/06/04 02:16:13;;;;;;;;;;;;;;;14.12;71.07;101980.94;4943867;29;19974;-31
2022/06/04 02:18:38;;;;;;;;;;;;;;;14.13;71.18;101977.19;4943801;29;20001;-32
2022/06/04 02:21:04;;;;;;;;;;;;;;;14.12;71.66;101979.06;4925839;29;19946;-32
2022/06/04 02:23:29;;;;;;;;;;;;;;;14.06;71.27;101974.38;4943803;29;20053;-31
2022/06/04 02:25:55;;;;;;;;;;;;;;;13.94;71.67;101981.19;4943188;29;19915;-32
2022/06/04 02:28:20;;;;;;;;;;;;;;;13.94;72.13;101976.59;4926254;29;19915;-33
2022/06/04 02:30:45;;;;;;;;;;;;;;;13.86;72.26;101983.94;4925789;29;20002;-31
2022/06/04 02:35:48;;;;;;;;;;;;;;;13.82;72.82;101975.31;4977185;23;20416;-32
2022/06/04 02:38:33;;;;;;;;;;;;;;;13.77;72.80;101983.97;4956641;29;19921;-32
2022/06/04 02:40:58;;;;;;;;;;;;;;;13.74;72.48;101989.69;4945637;29;19965;-32
2022/06/04 02:43:32;;;;;;;;;;;;;;;13.73;72.42;101995.31;4969966;28;19914;-33
2022/06/04 02:46:07;;;;;;;;;;;;;;;13.67;72.67;101986.03;4978560;28;19985;-32
2022/06/04 02:48:39;;;;;;;;;;;;;;;13.66;72.88;101984.31;4978203;28;19968;-32
2022/06/04 02:51:06;;;;;;;;;;;;;;;13.61;72.86;101978.59;4960661;28;20015;-32
2022/06/04 02:53:32;;;;;;;;;;;;;;;13.50;72.84;101960.88;4960883;28;19914;-33
2022/06/04 02:55:59;;;;;;;;;;;;;;;13.54;73.45;101961.41;4960637;28;19937;-33
2022/06/04 02:58:25;;;;;;;;;;;;;;;13.52;72.95;101966.13;4961469;28;19945;-33
2022/06/04 03:00:51;;;;;;;;;;;;;;;13.48;73.09;101959.38;4959954;28;20427;-33
2022/06/04 03:03:16;;;;;;;;;;;;;;;13.47;73.02;101968.50;4942813;28;19942;-35
2022/06/04 03:05:58;;;;;;;;;;;;;;;13.43;73.15;101961.75;4976842;28;19945;-34
2022/06/04 03:08:24;;;;;;;;;;;;;;;13.45;73.19;101963.25;4971196;28;19914;-35
2022/06/04 03:10:49;;;;;;;;;;;;;;;13.48;73.17;101960.22;4976071;28;19937;-33
2022/06/04 03:13:14;;;;;;;;;;;;;;;13.46;73.23;101961.44;4977736;28;19962;-34
2022/06/04 03:15:40;;;;;;;;;;;;;;;13.45;73.09;101963.25;4978251;28;19914;-35
2022/06/04 03:18:05;;;;;;;;;;;;;;;13.39;73.15;101947.75;4978255;28;19973;-34
2022/06/04 03:20:30;;;;;;;;;;;;;;;13.38;73.33;101943.38;4978173;28;19914;-35
2022/06/04 03:22:55;;;;;;;;;;;;;;;13.36;73.61;101950.78;4978224;28;19914;-34
2022/06/04 03:25:21;;;;;;;;;;;;;;;13.36;73.81;101951.63;4977649;28;19949;-36
2022/06/04 03:27:46;;;;;;;;;;;;;;;13.38;73.76;101951.47;4977945;28;19914;-34
2022/06/04 03:30:12;;;;;;;;;;;;;;;13.38;73.74;101948.78;4977519;28;19941;-32
2022/06/04 03:32:37;;;;;;;;;;;;;;;13.37;74.14;101950.59;4977027;28;19945;-34
2022/06/04 03:35:03;;;;;;;;;;;;;;;13.37;74.31;101947.06;4961707;28;19918;-32
2022/06/04 03:37:28;;;;;;;;;;;;;;;13.39;74.61;101945.88;4957127;29;19973;-32
2022/06/04 03:39:53;;;;;;;;;;;;;;;13.44;74.12;101947.22;4958380;29;19921;-33
2022/06/04 03:42:18;;;;;;;;;;;;;;;13.45;73.36;101940.78;4957886;29;19914;-33
2022/06/04 03:44:47;;;;;;;;;;;;;;;13.41;73.40;101945.72;4958222;29;19954;-32
2022/06/04 03:47:13;;;;;;;;;;;;;;;13.44;73.23;101956.19;4958149;29;19918;-34
2022/06/04 03:49:38;;;;;;;;;;;;;;;13.46;73.48;101958.72;4957815;29;20060;-34
2022/06/04 03:52:04;;;;;;;;;;;;;;;13.55;73.52;101960.38;4958069;29;19922;-32
2022/06/04 03:59:57;;;;;;;;;;;;;;;13.71;72.88;101948.63;4961199;29;20321;-33
2022/06/04 04:02:22;;;;;;;;;;;;;;;13.72;72.88;101948.47;4961688;29;19918;-34
2022/06/04 04:04:47;;;;;;;;;;;;;;;13.77;72.67;101947.94;4961866;29;20002;-33
2022/06/04 04:07:14;;;;;;;;;;;;;;;13.79;72.73;101952.16;4961265;29;19937;-33
2022/06/04 04:09:39;;;;;;;;;;;;;;;13.82;72.43;101956.34;4961532;29;19957;-32
2022/06/04 04:12:04;;;;;;;;;;;;;;;13.87;72.49;101963.97;4960743;29;19914;-33
2022/06/04 04:14:30;;;;;;;;;;;;;;;13.84;72.34;101955.16;4942448;29;19935;-35
2022/06/04 04:16:55;;;;;;;;;;;;;;;13.85;72.60;101947.91;4959092;29;19918;-35
2022/06/04 04:19:20;;;;;;;;;;;;;;;13.80;72.47;101948.44;4960861;29;19929;-33
2022/06/04 04:21:45;;;;;;;;;;;;;;;13.80;72.72;101951.16;4960029;29;19921;-35
2022/06/04 04:24:11;;;;;;;;;;;;;;;13.76;72.57;101957.91;4958144;29;19955;-33
2022/06/04 04:26:36;;;;;;;;;;;;;;;13.71;72.47;101965.72;4957904;29;19919;-34
2022/06/04 04:29:01;;;;;;;;;;;;;;;13.71;72.72;101973.00;4957289;29;19926;-34
2022/06/04 04:31:26;;;;;;;;;;;;;;;13.67;72.91;101967.09;4958571;29;20016;-33
2022/06/04 04:33:52;;;;;;;;;;;;;;;13.67;72.83;101958.97;4956767;28;19923;-32
2022/06/04 04:36:17;;;;;;;;;;;;;;;13.65;72.60;101971.00;4957575;29;19918;-35
2022/06/04 04:38:42;;;;;;;;;;;;;;;13.62;72.42;101977.59;4958533;29;20163;-32
2022/06/04 04:41:13;;;;;;;;;;;;;;;13.65;72.73;101976.41;4957576;29;19914;-35
2022/06/04 04:43:39;;;;;;;;;;;;;;;13.64;72.63;101972.84;4957809;29;19949;-33
2022/06/04 04:46:05;;;;;;;;;;;;;;;13.65;72.88;101974.53;4957833;29;20250;-33
2022/06/04 04:48:30;;;;;;;;;;;;;;;13.61;72.94;101965.94;4958614;29;19921;-33
2022/06/04 04:50:55;;;;;;;;;;;;;;;13.64;72.72;101969.28;4958180;29;19997;-33
2022/06/04 04:53:20;;;;;;;;;;;;;;;13.63;72.54;101965.75;4957909;29;20366;-33
2022/06/04 04:55:46;;;;;;;;;;;;;;;13.64;72.19;101975.56;4958023;29;20323;-33
2022/06/04 04:58:11;;;;;;;;;;;;;;;13.68;72.55;101976.88;4958490;29;19969;-32
2022/06/04 05:00:37;;;;;;;;;;;;;;;13.71;72.12;101981.09;4957586;29;19969;-32
2022/06/04 05:03:02;;;;;;;;;;;;;;;13.74;72.37;101976.19;4957800;29;19918;-36
2022/06/04 05:05:28;;;;;;;;;;;;;;;13.78;71.92;101977.53;4957410;29;19918;-33
2022/06/04 05:07:53;;;;;;;;;;;;;;;13.81;71.55;101970.91;4957339;29;19953;-33
2022/06/04 05:10:18;;;;;;;;;;;;;;;13.78;71.49;101968.56;4957723;28;19925;-32
2022/06/04 05:12:43;;;;;;;;;;;;;;;13.78;71.43;101977.53;4940271;29;20515;-32
2022/06/04 05:15:09;;;;;;;;;;;;;;;13.79;71.62;101971.09;4957671;29;19929;-33
2022/06/04 05:17:35;;;;;;;;;;;;;;;13.81;71.49;101974.47;4957841;29;19944;-34
2022/06/04 05:20:00;;;;;;;;;;;;;;;13.84;71.41;101963.28;4957847;29;19961;-32
2022/06/04 05:22:26;;;;;;;;;;;;;;;13.94;71.32;101964.94;4957538;29;19918;-33
2022/06/04 05:24:52;;;;;;;;;;;;;;;13.99;70.90;101965.25;4957411;29;19918;-33
2022/06/04 05:27:17;;;;;;;;;;;;;;;14.03;70.28;101964.75;4957107;29;19918;-33
2022/06/04 05:29:42;;;;;;;;;;;;;;;14.12;69.71;101976.34;4957699;29;19919;-32
2022/06/04 05:32:09;;;;;;;;;;;;;;;14.18;69.67;101962.09;4923945;29;19918;-34
2022/06/04 05:34:35;;;;;;;;;;;;;;;14.24;69.36;101966.81;4958008;28;19919;-32
2022/06/04 05:37:01;;;;;;;;;;;;;;;14.35;69.15;101967.41;4958076;29;20450;-34
2022/06/04 05:39:26;;;;;;;;;;;;;;;14.43;68.82;101970.09;4957201;29;19922;-34
2022/06/04 05:41:52;;;;;;;;;;;;;;;14.52;68.53;101968.16;4958423;29;19922;-34
2022/06/04 05:44:17;;;;;;;;;;;;;;;14.57;68.05;101972.03;4957802;29;19914;-33
2022/06/04 05:46:44;;;;;;;;;;;;;;;14.63;67.61;101971.31;4958077;29;19922;-34
2022/06/04 05:49:11;;;;;;;;;;;;;;;14.65;67.50;101974.69;4958250;29;19922;-32
2022/06/04 05:51:36;;;;;;;;;;;;;;;14.65;67.34;101998.22;4957375;29;19922;-31
2022/06/04 05:54:01;;;;;;;;;;;;;;;14.59;66.39;101983.53;4958384;29;19979;-34
2022/06/04 05:56:28;;;;;;;;;;;;;;;14.60;66.31;101982.50;4940651;29;20358;-32
2022/06/04 05:58:55;;;;;;;;;;;;;;;14.60;65.79;101985.22;4958447;29;19933;-32
2022/06/04 06:01:21;;;;;;;;;;;;;;;14.63;66.19;101984.84;4957250;29;20002;-34
2022/06/04 06:03:46;;;;;;;;;;;;;;;14.63;66.28;101987.56;4939738;29;19965;-32
2022/06/04 06:06:12;;;;;;;;;;;;;;;14.67;66.64;101993.47;4958142;29;20314;-33
2022/06/04 06:08:37;;;;;;;;;;;;;;;14.73;66.66;101991.91;4957624;29;19934;-33
2022/06/04 06:11:05;;;;;;;;;;;;;;;14.71;66.00;101990.19;4959715;29;19921;-33
2022/06/04 06:13:30;;;;;;;;;;;;;;;14.67;66.42;101999.72;4957970;29;19946;-34
2022/06/04 06:15:56;;;;;;;;;;;;;;;14.63;66.42;101998.41;4960741;29;20018;-35
2022/06/04 06:18:21;;;;;;;;;;;;;;;14.49;66.59;102001.88;4943375;29;19919;-35
2022/06/04 06:20:46;;;;;;;;;;;;;;;14.42;67.28;102000.88;4960514;28;19957;-37
2022/06/04 06:23:11;;;;;;;;;;;;;;;14.37;67.85;102009.53;4959296;29;19965;-34
2022/06/04 06:25:37;;;;;;;;;;;;;;;14.40;68.48;102003.78;4942942;29;19922;-35
2022/06/04 06:28:02;;;;;;;;;;;;;;;14.45;67.88;102005.94;4960543;29;19985;-35
2022/06/04 06:30:27;;;;;;;;;;;;;;;14.50;67.53;102011.66;4960535;29;19918;-34
2022/06/04 06:32:52;;;;;;;;;;;;;;;14.50;67.52;102014.38;4960053;29;20017;-37
2022/06/04 06:35:18;;;;;;;;;;;;;;;14.47;67.43;102031.00;4959636;28;19943;-35
2022/06/04 06:37:43;;;;;;;;;;;;;;;14.48;67.67;102033.53;4959606;29;19952;-34
2022/06/04 06:40:08;;;;;;;;;;;;;;;14.54;68.19;102047.41;4959690;29;19918;-34
2022/06/04 06:42:34;;;;;;;;;;;;;;;14.61;68.07;102042.94;4959038;29;19921;-34
2022/06/04 06:44:59;;;;;;;;;;;;;;;14.65;67.44;102041.59;4959848;29;19922;-36
2022/06/04 06:47:24;;;;;;;;;;;;;;;14.69;67.49;102054.59;4941957;29;19922;-34
2022/06/04 06:49:49;;;;;;;;;;;;;;;14.78;67.43;102055.38;4959265;29;19920;-35
2022/06/04 06:52:16;;;;;;;;;;;;;;;14.81;67.34;102054.16;4959959;29;19915;-33
2022/06/04 06:54:41;;;;;;;;;;;;;;;14.86;67.34;102057.19;4959315;29;19914;-33
2022/06/04 06:57:07;;;;;;;;;;;;;;;14.94;67.26;102054.41;4959529;29;19918;-34
2022/06/04 06:59:33;;;;;;;;;;;;;;;15.07;66.60;102049.22;4960478;29;19914;-33
2022/06/04 07:01:58;;;;;;;;;;;;;;;15.27;66.08;102049.56;4959108;29;19914;-34
2022/06/04 07:04:25;;;;;;;;;;;;;;;15.44;65.22;102044.81;4960185;29;19914;-35
2022/06/04 07:06:52;;;;;;;;;;;;;;;15.49;64.99;102050.53;4959601;29;20340;-33
2022/06/04 07:09:18;;;;;;;;;;;;;;;15.57;64.75;102047.75;4959392;29;20001;-33
2022/06/04 07:11:43;;;;;;;;;;;;;;;15.67;64.69;102055.63;4959486;29;19957;-33
2022/06/04 07:14:09;;;;;;;;;;;;;;;15.82;64.37;102058.34;4959305;29;19957;-34
2022/06/04 07:16:34;;;;;;;;;;;;;;;15.91;64.49;102059.97;4959265;29;19918;-33
2022/06/04 07:19:00;;;;;;;;;;;;;;;15.98;64.89;102068.19;4959631;29;19914;-35
2022/06/04 07:21:25;;;;;;;;;;;;;;;16.01;64.65;102073.25;4959172;29;19918;-34
2022/06/04 07:23:51;;;;;;;;;;;;;;;16.05;64.33;102076.44;4959997;29;19922;-33
2022/06/04 07:26:16;;;;;;;;;;;;;;;16.11;64.46;102081.09;4959144;29;19914;-31
2022/06/04 07:28:41;;;;;;;;;;;;;;;16.10;64.00;102074.81;4959430;29;19914;-33
2022/06/04 07:31:07;;;;;;;;;;;;;;;16.07;63.66;102068.94;4959651;29;20312;-32
2022/06/04 07:33:33;;;;;;;;;;;;;;;15.92;64.03;102072.50;4958610;28;20009;-33
2022/06/04 07:35:58;;;;;;;;;;;;;;;15.94;64.15;102065.00;4941951;29;20272;-35
2022/06/04 07:38:23;;;;;;;;;;;;;;;15.89;64.03;102069.31;4959865;29;19939;-32
2022/06/04 07:40:49;;;;;;;;;;;;;;;15.80;64.17;102050.41;4958903;29;19957;-33
2022/06/04 07:43:14;;;;;;;;;;;;;;;15.83;63.99;102049.19;4959330;29;20322;-33
2022/06/04 07:45:40;;;;;;;;;;;;;;;15.83;64.36;102042.94;4958710;29;19915;-33
2022/06/04 07:48:05;;;;;;;;;;;;;;;15.78;64.33;102046.19;4958558;29;20005;-32
2022/06/04 07:50:31;;;;;;;;;;;;;;;15.73;64.46;102037.78;4959110;29;19918;-33
2022/06/04 07:52:57;;;;;;;;;;;;;;;15.70;64.90;102043.56;4959441;29;19921;-34
2022/06/04 07:55:22;;;;;;;;;;;;;;;15.70;64.80;102043.56;4958800;29;19915;-34
2022/06/04 07:57:48;;;;;;;;;;;;;;;15.72;64.98;102033.38;4942109;29;19915;-34
2022/06/04 08:00:14;;;;;;;;;;;;;;;15.74;64.34;102028.59;4959120;29;19914;-34
2022/06/04 08:02:42;;;;;;;;;;;;;;;15.65;64.95;102033.25;4959337;29;20314;-33
2022/06/04 08:05:07;;;;;;;;;;;;;;;15.56;65.16;102035.22;4959412;29;19914;-35
2022/06/04 08:07:32;;;;;;;;;;;;;;;15.51;65.38;102034.91;4958408;29;20019;-33
2022/06/04 08:09:58;;;;;;;;;;;;;;;15.45;66.11;102032.94;4957948;29;20317;-33
2022/06/04 08:12:23;;;;;;;;;;;;;;;15.45;67.28;102040.22;4956321;29;19918;-38
2022/06/04 08:14:48;;;;;;;;;;;;;;;15.33;67.72;102040.69;4947688;29;19965;-31
2022/06/04 08:17:13;;;;;;;;;;;;;;;15.27;67.84;102048.69;4945753;29;19922;-34
2022/06/04 08:19:39;;;;;;;;;;;;;;;15.20;68.29;102050.47;4939973;29;19915;-34
2022/06/04 08:22:05;;;;;;;;;;;;;;;15.11;67.80;102055.09;4937347;29;19966;-32
2022/06/04 08:24:30;;;;;;;;;;;;;;;15.03;68.13;102050.59;4937035;29;19914;-32
2022/06/04 08:26:58;;;;;;;;;;;;;;;14.97;68.38;102056.75;4937737;29;20038;-33
2022/06/04 08:29:24;;;;;;;;;;;;;;;14.92;67.94;102053.75;4920270;29;20017;-34
2022/06/04 08:31:49;;;;;;;;;;;;;;;14.88;68.10;102066.00;4936999;29;20680;-34
2022/06/04 08:34:15;;;;;;;;;;;;;;;14.87;68.44;102058.84;4918728;29;20280;-35
2022/06/04 08:36:41;;;;;;;;;;;;;;;14.91;68.19;102071.03;4936075;29;19919;-32
2022/06/04 08:39:07;;;;;;;;;;;;;;;14.94;67.78;102059.84;4919837;29;19914;-35
2022/06/04 08:41:41;;;;;;;;;;;;;;;14.96;68.02;102073.22;4935994;29;19922;-33
2022/06/04 08:44:13;;;;;;;;;;;;;;;15.01;68.21;102076.19;4936337;29;19914;-34
2022/06/04 08:46:46;;;;;;;;;;;;;;;15.04;68.17;102073.16;4939476;29;19970;-33
2022/06/04 08:49:24;;;;;;;;;;;;;;;15.11;68.51;102077.69;4940646;29;19918;-33
2022/06/04 08:51:50;;;;;;;;;;;;;;;15.17;68.36;102069.84;4939639;29;20644;-32
2022/06/04 08:59:58;;;;;;;;;;;;;;;15.40;68.41;102069.78;4925480;29;19961;-33
2022/06/04 09:02:25;;;;;;;;;;;;;;;15.54;67.99;102077.97;4939458;29;19914;-33
2022/06/04 09:04:50;;;;;;;;;;;;;;;15.61;67.42;102079.94;4922526;29;19914;-33
2022/06/04 09:07:36;;;;;;;;;;;;;;;15.63;67.42;102081.44;4939422;29;19921;-36
2022/06/04 09:10:06;;;;;;;;;;;;;;;15.65;66.97;102081.25;4958536;29;19926;-33
2022/06/04 09:12:34;;;;;;;;;;;;;;;15.64;66.98;102082.25;4926813;29;19930;-33
2022/06/04 09:15:16;;;;;;;;;;;;;;;15.67;66.75;102081.91;4960831;29;19937;-34
2022/06/04 09:17:44;;;;;;;;;;;;;;;15.69;66.38;102088.00;4943863;29;19914;-34
2022/06/04 09:20:15;;;;;;;;;;;;;;;15.76;66.26;102087.09;4961254;29;20297;-33
2022/06/04 09:22:40;;;;;;;;;;;;;;;15.77;66.13;102090.63;4960352;29;20322;-33
2022/06/04 09:25:11;;;;;;;;;;;;;;;15.84;66.34;102088.88;4960180;29;19961;-33
2022/06/04 09:27:41;;;;;;;;;;;;;;;15.97;66.08;102091.78;4960686;29;19990;-33
2022/06/04 09:30:16;;;;;;;;;;;;;;;16.09;65.93;102085.88;4960571;29;19915;-33
2022/06/04 09:32:44;;;;;;;;;;;;;;;16.24;65.70;102089.41;4943187;29;20303;-34
2022/06/04 09:35:10;;;;;;;;;;;;;;;16.31;64.72;102079.50;4959971;28;19918;-34
2022/06/04 09:37:43;;;;;;;;;;;;;;;16.30;64.32;102083.25;4961236;29;19918;-35
2022/06/04 09:40:12;;;;;;;;;;;;;;;16.23;64.35;102087.75;4960693;29;19919;-33
2022/06/04 09:42:38;;;;;;;;;;;;;;;16.23;64.29;102077.72;4943044;29;19914;-33
2022/06/04 09:45:04;;;;;;;;;;;;;;;16.19;64.31;102076.44;4961522;28;19921;-32
2022/06/04 09:47:29;;;;;;;;;;;;;;;16.16;64.45;102089.53;4943208;29;19914;-33
2022/06/04 09:49:56;;;;;;;;;;;;;;;16.16;64.54;102082.22;4960382;29;19976;-34
2022/06/04 09:52:27;;;;;;;;;;;;;;;16.15;64.77;102082.41;4942758;29;20377;-33
2022/06/04 09:54:56;;;;;;;;;;;;;;;16.17;64.66;102078.47;4960869;29;19915;-35
2022/06/04 09:57:26;;;;;;;;;;;;;;;16.20;64.62;102077.25;4942522;29;19921;-33
2022/06/04 09:59:53;;;;;;;;;;;;;;;16.22;64.56;102084.19;4960298;29;19973;-33
2022/06/04 10:02:19;;;;;;;;;;;;;;;16.23;64.26;102090.47;4960785;29;19972;-33
2022/06/04 10:04:47;;;;;;;;;;;;;;;16.23;64.64;102087.75;4943335;29;19914;-33
2022/06/04 10:07:14;;;;;;;;;;;;;;;16.27;64.17;102083.59;4960184;29;20439;-33
2022/06/04 10:09:56;;;;;;;;;;;;;;;16.35;64.02;102082.66;4959656;29;20255;-33
2022/06/04 10:13:42;;;;;;;;;;;;;;;16.45;63.28;102092.19;4944384;29;20482;-32
2022/06/04 10:15:14;;;;;;;;;;;;;;;16.52;62.73;102081.41;4961132;29;19926;-35
2022/06/04 10:17:39;;;;;;;;;;;;;;;16.48;62.59;102085.53;4943753;29;19918;-32
2022/06/04 10:20:17;;;;;;;;;;;;;;;16.48;63.10;102090.13;4960150;29;20073;-36
2022/06/04 10:22:49;;;;;;;;;;;;;;;16.54;62.90;102087.50;4959452;29;19942;-35
2022/06/04 10:25:47;;;;;;;;;;;;;;;16.62;62.73;102097.44;4959848;29;19918;-34
2022/06/04 10:28:25;;;;;;;;;;;;;;;16.60;62.69;102100.31;4917274;29;19914;-32
2022/06/04 10:31:03;;;;;;;;;;;;;;;16.56;62.66;102088.16;4959068;29;19918;-33
2022/06/04 10:33:38;;;;;;;;;;;;;;;16.59;62.78;102090.50;4943040;28;19922;-33
2022/06/04 10:36:03;;;;;;;;;;;;;;;16.67;62.77;102084.94;4960268;29;20395;-33
2022/06/04 10:38:31;;;;;;;;;;;;;;;16.72;62.62;102086.22;4961174;29;19957;-33
2022/06/04 10:41:01;;;;;;;;;;;;;;;16.82;62.60;102081.34;4960824;29;19937;-35
2022/06/04 10:43:42;;;;;;;;;;;;;;;16.91;62.53;102087.53;4960817;29;19914;-36
2022/06/04 10:46:10;;;;;;;;;;;;;;;16.97;62.33;102084.03;4959770;29;19914;-37
2022/06/04 10:48:35;;;;;;;;;;;;;;;16.97;61.90;102082.13;4942367;29;19973;-36
2022/06/04 10:54:11;;;;;;;;;;;;;;;17.12;61.95;102076.66;4945143;29;19965;-35
2022/06/04 10:56:36;;;;;;;;;;;;;;;17.19;61.90;102073.97;4934789;29;19914;-37
2022/06/04 10:59:04;;;;;;;;;;;;;;;17.26;62.48;102066.72;4959470;29;19910;-32
2022/06/04 11:01:40;;;;;;;;;;;;;;;17.37;61.96;102081.66;4942503;29;19950;-33
2022/06/04 11:04:19;;;;;;;;;;;;;;;17.37;61.67;102074.34;4959217;29;19954;-33
2022/06/04 11:06:46;;;;;;;;;;;;;;;17.43;61.44;102073.56;4959408;29;19914;-35
2022/06/04 11:09:23;;;;;;;;;;;;;;;17.42;61.16;102073.75;4959641;28;19926;-35
2022/06/04 11:11:50;;;;;;;;;;;;;;;17.41;61.28;102075.63;4942990;29;19915;-35
2022/06/04 11:14:23;;;;;;;;;;;;;;;17.40;61.08;102078.53;4942405;29;19925;-36
2022/06/04 11:16:52;;;;;;;;;;;;;;;17.43;61.50;102078.16;4942451;29;19930;-34
2022/06/04 11:19:26;;;;;;;;;;;;;;;17.42;61.33;102081.91;4941512;29;20302;-37
2022/06/04 11:21:59;;;;;;;;;;;;;;;17.41;61.70;102088.41;4959472;29;19914;-32
2022/06/04 11:24:29;;;;;;;;;;;;;;;17.39;61.39;102090.47;4958611;29;19921;-34
2022/06/04 11:27:09;;;;;;;;;;;;;;;17.34;61.42;102083.72;4942218;29;19914;-32
2022/06/04 11:29:36;;;;;;;;;;;;;;;17.33;62.53;102090.22;4941381;29;20349;-32
2022/06/04 11:32:17;;;;;;;;;;;;;;;17.42;62.48;102092.81;4958383;29;19938;-33
2022/06/04 11:35:03;;;;;;;;;;;;;;;17.47;61.71;102090.34;4959390;28;19914;-34
2022/06/04 11:37:37;;;;;;;;;;;;;;;17.50;61.35;102101.66;4959427;29;19953;-35
2022/06/04 11:40:12;;;;;;;;;;;;;;;17.51;61.34;102097.06;4958818;29;19993;-32
2022/06/04 11:42:41;;;;;;;;;;;;;;;17.59;61.44;102086.03;4934239;29;20002;-34
2022/06/04 11:45:06;;;;;;;;;;;;;;;17.63;61.85;102086.47;4958975;29;19970;-32
2022/06/04 11:47:34;;;;;;;;;;;;;;;17.59;61.62;102086.03;4958646;29;19914;-33
2022/06/04 11:49:59;;;;;;;;;;;;;;;17.56;61.63;102100.03;4959246;29;20089;-36
2022/06/04 11:52:27;;;;;;;;;;;;;;;17.57;61.69;102085.38;4959084;29;19914;-32
2022/06/04 11:54:55;;;;;;;;;;;;;;;17.58;61.59;102091.66;4941681;29;20045;-34
2022/06/04 11:57:29;;;;;;;;;;;;;;;17.57;62.29;102096.28;4958857;29;19914;-32
2022/06/04 12:00:01;;;;;;;;;;;;;;;17.60;61.82;102093.16;4941715;29;19921;-32
2022/06/04 12:02:46;;;;;;;;;;;;;;;17.67;62.20;102085.06;4958402;29;19930;-33
2022/06/04 12:05:30;;;;;;;;;;;;;;;17.74;61.12;102077.75;4958247;29;19946;-33
2022/06/04 12:07:56;;;;;;;;;;;;;;;17.81;60.98;102073.22;4958625;29;19962;-34
2022/06/04 12:10:21;;;;;;;;;;;;;;;17.90;60.88;102084.78;4958513;29;19985;-33
2022/06/04 12:12:55;;;;;;;;;;;;;;;17.97;60.46;102080.22;4958696;29;19932;-33
2022/06/04 12:15:20;;;;;;;;;;;;;;;18.01;59.94;102076.06;4942539;29;19914;-34
2022/06/04 12:17:47;;;;;;;;;;;;;;;18.15;60.49;102075.09;4958876;29;20060;-34
2022/06/04 12:26:17;;;;;;;;;;;;;;;19.31;57.55;102068.69;4948050;29;19921;-31
2022/06/04 12:28:42;;;;;;;;;;;;;;;19.92;56.18;102057.47;4946129;29;20531;-33
2022/06/04 12:31:07;;;;;;;;;;;;;;;20.86;53.48;102065.28;4964558;29;19925;-32
2022/06/04 12:33:39;;;;;;;;;;;;;;;21.89;50.46;102067.56;4963408;28;19914;-32
2022/06/04 12:36:06;;;;;;;;;;;;;;;22.23;48.31;102073.53;4963454;29;20008;-32
2022/06/04 12:38:39;;;;;;;;;;;;;;;21.78;49.21;102071.06;4945703;29;19985;-33
2022/06/04 12:41:08;;;;;;;;;;;;;;;21.43;50.24;102074.34;4964063;29;20001;-34
2022/06/04 12:43:35;;;;;;;;;;;;;;;21.88;49.15;102071.34;4963800;29;20281;-32
2022/06/04 12:46:08;;;;;;;;;;;;;;;22.40;47.44;102071.81;4946780;29;19973;-32
2022/06/04 12:48:36;;;;;;;;;;;;;;;22.83;46.60;102068.06;4963787;29;19914;-33
2022/06/04 12:51:01;;;;;;;;;;;;;;;23.11;46.07;102072.09;4964448;29;19910;-33
2022/06/04 12:53:27;;;;;;;;;;;;;;;23.22;46.16;102054.78;4963596;29;20390;-32
2022/06/04 12:55:57;;;;;;;;;;;;;;;23.55;46.19;102064.38;4946577;29;19914;-32
2022/06/04 12:58:26;;;;;;;;;;;;;;;23.12;45.75;102063.63;4946454;29;20005;-33
2022/06/04 13:00:55;;;;;;;;;;;;;;;23.14;45.48;102052.41;4964316;29;20400;-34
2022/06/04 13:03:34;;;;;;;;;;;;;;;23.05;45.92;102051.09;4963356;29;19914;-33
2022/06/04 13:06:02;;;;;;;;;;;;;;;22.76;46.18;102051.69;4945429;29;20009;-33
2022/06/04 13:08:27;;;;;;;;;;;;;;;22.87;47.31;102055.53;4963172;29;20453;-33
2022/06/04 13:11:05;;;;;;;;;;;;;;;23.11;46.23;102053.72;4963605;29;19910;-33